Time;durP1;ratioP1;P1;durP2;ratioP2;P2;SDS_P1;SDS_P2;PMS_P1;PMS_P2;Temp;Humidity;BMP_temperature;BMP_pressure;BME280_temperature;BME280_humidity;BME280_pressure;Samples;Min_cycle;Max_cycle;Signal;HPM_P1;HPM_P2
2023/09/05 00:01:53;;;;;;;8.25;7.45;;;19.20;99.90;;;;;;6082088;23;20052;-89
2023/09/05 00:04:19;;;;;;;8.00;7.18;;;19.30;99.90;;;;;;6106088;23;20015;-92
2023/09/05 00:06:47;;;;;;;8.05;7.25;;;19.30;99.90;;;;;;6081346;23;20022;-91
2023/09/05 00:09:14;;;;;;;7.40;6.65;;;18.90;99.90;;;;;;6082699;23;20856;-93
2023/09/05 00:11:40;;;;;;;7.90;7.10;;;18.60;99.90;;;;;;6106321;23;20399;-89
2023/09/05 00:14:06;;;;;;;7.53;6.82;;;18.30;99.90;;;;;;6107119;23;20018;-92
2023/09/05 00:16:32;;;;;;;7.50;6.80;;;18.30;99.90;;;;;;6109544;23;20017;-90
2023/09/05 00:18:58;;;;;;;7.57;6.88;;;18.20;99.90;;;;;;6108083;23;20443;-89
2023/09/05 00:21:27;;;;;;;8.50;7.28;;;18.00;99.90;;;;;;6082355;23;20013;-90
2023/09/05 00:23:55;;;;;;;7.68;6.97;;;18.00;99.90;;;;;;6106486;23;20013;-89
2023/09/05 00:26:21;;;;;;;9.23;7.40;;;17.90;99.90;;;;;;6106257;23;20018;-90
2023/09/05 00:28:50;;;;;;;9.25;7.53;;;18.00;99.90;;;;;;6106095;23;20075;-94
2023/09/05 00:31:15;;;;;;;8.63;7.82;;;18.00;99.90;;;;;;6082889;23;20017;-91
2023/09/05 00:33:41;;;;;;;8.18;7.38;;;18.10;99.90;;;;;;6105663;23;20025;-92
2023/09/05 00:36:08;;;;;;;9.00;8.10;;;18.20;99.90;;;;;;6088084;23;20072;-90
2023/09/05 00:38:34;;;;;;;9.30;8.40;;;18.20;99.90;;;;;;6116557;23;20013;-92
2023/09/05 00:41:04;;;;;;;8.98;7.97;;;18.40;99.90;;;;;;6105711;23;20044;-91
2023/09/05 00:43:30;;;;;;;9.13;8.07;;;18.70;99.90;;;;;;6058933;23;20435;-91
2023/09/05 00:45:57;;;;;;;7.70;6.93;;;18.50;99.90;;;;;;6081916;23;20072;-91
2023/09/05 00:48:27;;;;;;;8.48;7.68;;;18.30;99.90;;;;;;6105623;23;20013;-92
2023/09/05 00:50:56;;;;;;;8.40;7.47;;;18.00;99.90;;;;;;6104538;23;20079;-90
2023/09/05 00:53:26;;;;;;;7.50;6.78;;;17.90;99.90;;;;;;6104794;23;20018;-90
2023/09/05 00:55:52;;;;;;;8.35;7.65;;;17.80;99.90;;;;;;6104839;23;20021;-90
2023/09/05 00:58:19;;;;;;;11.55;7.95;;;17.80;99.90;;;;;;6105029;23;20144;-91
2023/09/05 01:00:45;;;;;;;7.93;6.88;;;18.00;99.90;;;;;;6105334;23;20018;-92
2023/09/05 01:03:11;;;;;;;9.73;7.90;;;18.00;99.90;;;;;;6104318;23;20013;-92
2023/09/05 01:05:41;;;;;;;8.50;7.70;;;18.10;99.90;;;;;;6104105;23;20072;-91
2023/09/05 01:08:14;;;;;;;11.07;9.98;;;18.20;99.90;;;;;;6081014;23;20036;-93
2023/09/05 01:10:59;;;;;;;9.98;9.05;;;18.30;99.90;;;;;;6104789;23;20071;-93
2023/09/05 01:13:25;;;;;;;;;;;18.60;99.90;;;;;;6105063;23;20208;-91
2023/09/05 01:15:52;;;;;;;9.57;8.65;;;18.60;99.90;;;;;;6104893;23;19940;-93
2023/09/05 01:18:18;;;;;;;10.43;9.07;;;18.80;99.90;;;;;;6105822;23;20014;-90
2023/09/05 01:21:11;;;;;;;10.73;9.35;;;18.90;99.90;;;;;;6105722;23;20020;-90
2023/09/05 01:23:49;;;;;;;10.25;8.95;;;18.90;99.90;;;;;;6105632;23;20013;-93
2023/09/05 01:26:16;;;;;;;10.90;8.63;;;18.90;99.90;;;;;;6105864;23;20049;-92
2023/09/05 01:28:43;;;;;;;10.05;9.05;;;18.90;99.90;;;;;;6082322;23;20024;-91
2023/09/05 01:31:11;;;;;;;10.27;9.27;;;19.00;99.90;;;;;;6082442;23;20422;-92
2023/09/05 01:33:38;;;;;;;10.95;9.05;;;19.10;99.90;;;;;;6103881;23;20092;-91
2023/09/05 01:36:05;;;;;;;10.77;9.77;;;19.10;99.90;;;;;;6106681;23;20013;-90
2023/09/05 01:38:31;;;;;;;10.70;9.45;;;19.10;99.90;;;;;;6108960;23;20066;-91
2023/09/05 01:40:56;;;;;;;12.02;10.73;;;19.10;99.90;;;;;;6107240;23;20064;-92
2023/09/05 01:43:22;;;;;;;11.15;9.95;;;19.10;99.90;;;;;;6105508;23;20087;-91
2023/09/05 01:45:48;;;;;;;10.10;9.15;;;19.20;99.90;;;;;;6107421;23;20016;-92
2023/09/05 01:48:17;;;;;;;9.80;8.65;;;19.20;99.90;;;;;;6102831;23;20023;-92
2023/09/05 01:50:43;;;;;;;11.07;10.05;;;19.10;99.90;;;;;;6104690;23;20013;-91
2023/09/05 01:53:11;;;;;;;11.23;10.00;;;19.10;99.90;;;;;;6104609;23;20438;-91
2023/09/05 01:55:37;;;;;;;11.00;9.90;;;19.10;99.90;;;;;;6104840;23;20033;-91
2023/09/05 01:58:03;;;;;;;11.32;9.85;;;19.10;99.90;;;;;;6101934;23;20032;-90
2023/09/05 02:00:29;;;;;;;10.70;9.63;;;19.00;99.90;;;;;;6079138;23;20014;-90
2023/09/05 02:02:55;;;;;;;10.48;9.48;;;19.00;99.90;;;;;;6103633;23;20064;-90
2023/09/05 02:05:21;;;;;;;11.48;10.38;;;18.90;99.90;;;;;;6104620;23;20013;-90
2023/09/05 02:07:46;;;;;;;10.20;8.88;;;18.80;99.90;;;;;;6079803;23;20017;-89
2023/09/05 02:10:12;;;;;;;8.60;7.80;;;18.70;99.90;;;;;;6079283;23;20125;-91
2023/09/05 02:12:38;;;;;;;11.43;9.13;;;18.50;99.90;;;;;;6104271;23;20096;-92
2023/09/05 02:15:07;;;;;;;9.52;8.52;;;18.50;99.90;;;;;;6079539;23;20018;-91
2023/09/05 02:17:36;;;;;;;9.00;8.10;;;18.40;99.90;;;;;;6103389;23;20028;-90
2023/09/05 02:20:03;;;;;;;10.60;9.13;;;18.20;99.90;;;;;;6103894;23;20101;-92
2023/09/05 02:22:30;;;;;;;11.25;10.10;;;18.20;99.90;;;;;;6105284;23;20049;-92
2023/09/05 02:24:55;;;;;;;11.23;10.18;;;18.30;99.90;;;;;;6105969;23;20048;-91
2023/09/05 02:27:21;;;;;;;11.57;9.55;;;18.40;99.90;;;;;;6105506;23;20024;-91
2023/09/05 02:29:56;;;;;;;11.32;10.23;;;18.50;99.90;;;;;;6058912;23;20017;-92
2023/09/05 02:32:24;;;;;;;10.38;9.23;;;18.50;99.90;;;;;;6106974;23;20017;-92
2023/09/05 02:34:54;;;;;;;11.43;10.13;;;18.10;99.90;;;;;;6059812;23;20018;-90
2023/09/05 02:37:20;;;;;;;12.18;10.98;;;18.50;99.90;;;;;;6106075;23;20043;-91
2023/09/05 02:39:46;;;;;;;11.05;9.90;;;17.80;99.90;;;;;;6106444;23;20451;-90
2023/09/05 02:42:15;;;;;;;9.95;9.05;;;18.50;99.90;;;;;;6106254;23;20017;-92
2023/09/05 02:44:41;;;;;;;11.25;10.00;;;18.40;99.90;;;;;;6107014;23;20014;-90
2023/09/05 02:47:06;;;;;;;10.35;9.27;;;18.30;99.90;;;;;;6106695;23;20013;-89
2023/09/05 02:49:32;;;;;;;9.82;8.85;;;18.20;99.90;;;;;;6130847;23;20017;-94
2023/09/05 02:51:59;;;;;;;9.23;8.43;;;18.10;99.90;;;;;;6104913;23;20092;-91
2023/09/05 02:54:28;;;;;;;11.38;10.00;;;18.00;99.90;;;;;;6106441;23;20009;-92
2023/09/05 02:56:55;;;;;;;10.95;9.85;;;18.00;99.90;;;;;;6058963;23;20025;-89
2023/09/05 02:59:22;;;;;;;12.90;11.55;;;18.00;99.90;;;;;;6082423;23;20396;-91
2023/09/05 03:01:48;;;;;;;13.15;10.50;;;18.10;99.90;;;;;;6106936;23;20013;-91
2023/09/05 03:04:14;;;;;;;12.55;11.25;;;18.20;99.90;;;;;;6058909;23;20047;-89
2023/09/05 03:06:41;;;;;;;14.00;12.20;;;18.30;99.90;;;;;;6131475;23;20013;-89
2023/09/05 03:09:07;;;;;;;13.15;11.82;;;18.30;99.90;;;;;;6082285;23;20013;-91
2023/09/05 03:11:33;;;;;;;13.50;12.10;;;18.30;99.90;;;;;;6106384;23;20099;-91
2023/09/05 03:13:58;;;;;;;12.30;11.07;;;18.30;99.90;;;;;;6105873;23;20045;-90
2023/09/05 03:16:24;;;;;;;14.95;12.75;;;18.40;99.90;;;;;;6106683;23;20019;-91
2023/09/05 03:18:50;;;;;;;14.45;12.95;;;18.40;99.90;;;;;;6106093;23;20049;-89
2023/09/05 03:21:17;;;;;;;13.15;11.77;;;18.40;99.90;;;;;;6082240;23;20017;-91
2023/09/05 03:23:43;;;;;;;12.38;11.07;;;18.40;99.90;;;;;;6106374;23;20088;-91
2023/09/05 03:26:09;;;;;;;12.65;11.18;;;18.40;99.90;;;;;;6130462;23;20084;-89
2023/09/05 03:28:43;;;;;;;12.00;10.80;;;18.40;99.90;;;;;;6105661;23;20025;-90
2023/09/05 03:31:09;;;;;;;12.82;10.38;;;18.40;99.90;;;;;;6106043;23;20041;-90
2023/09/05 03:33:38;;;;;;;13.82;12.38;;;18.50;99.90;;;;;;6129445;23;20367;-91
2023/09/05 03:36:05;;;;;;;12.85;11.45;;;18.40;99.90;;;;;;6082804;23;20017;-92
2023/09/05 03:38:32;;;;;;;12.00;10.80;;;18.40;99.90;;;;;;6058448;23;20014;-91
2023/09/05 03:40:58;;;;;;;13.63;11.63;;;18.40;99.90;;;;;;6105571;23;20017;-90
2023/09/05 03:43:24;;;;;;;14.18;12.77;;;18.50;99.90;;;;;;6105061;23;20010;-91
2023/09/05 03:45:50;;;;;;;14.75;12.18;;;18.40;99.90;;;;;;6105670;23;20032;-93
2023/09/05 03:48:16;;;;;;;13.07;11.77;;;18.40;99.90;;;;;;6081599;23;20530;-89
2023/09/05 03:50:41;;;;;;;13.55;12.15;;;17.80;99.90;;;;;;6081056;23;20028;-91
2023/09/05 03:53:07;;;;;;;13.15;11.80;;;18.40;99.90;;;;;;6105955;23;20020;-92
2023/09/05 03:55:34;;;;;;;13.27;11.90;;;18.40;99.90;;;;;;6105190;23;20113;-94
2023/09/05 03:58:03;;;;;;;13.35;12.05;;;18.40;99.90;;;;;;6104344;23;20017;-92
2023/09/05 04:00:31;;;;;;;14.82;11.35;;;18.40;99.90;;;;;;6128879;23;20331;-90
2023/09/05 04:02:57;;;;;;;12.65;11.45;;;18.30;99.90;;;;;;6105148;23;20403;-92
2023/09/05 04:05:24;;;;;;;13.45;12.10;;;18.40;99.90;;;;;;6106074;23;20016;-92
2023/09/05 04:07:49;;;;;;;12.98;11.63;;;18.30;99.90;;;;;;6104929;23;20024;-90
2023/09/05 04:10:15;;;;;;;13.45;12.05;;;18.30;99.90;;;;;;6081675;23;20095;-92
2023/09/05 04:12:41;;;;;;;12.65;11.35;;;18.30;99.90;;;;;;6081667;23;20049;-90
2023/09/05 04:15:10;;;;;;;13.52;11.80;;;18.20;99.90;;;;;;6105025;23;20024;-89
2023/09/05 04:17:37;;;;;;;13.30;12.00;;;18.10;99.90;;;;;;6103865;23;20045;-91
2023/09/05 04:20:06;;;;;;;14.07;11.65;;;18.00;99.90;;;;;;6080819;23;20017;-91
2023/09/05 04:22:32;;;;;;;12.90;11.60;;;18.10;99.90;;;;;;6104604;23;20455;-92
2023/09/05 04:24:59;;;;;;;12.85;11.20;;;18.10;99.90;;;;;;6101087;23;20017;-90
2023/09/05 04:27:25;;;;;;;13.98;11.52;;;18.10;99.90;;;;;;6102487;23;20017;-92
2023/09/05 04:29:54;;;;;;;13.32;12.02;;;18.10;99.90;;;;;;6103706;23;20525;-89
2023/09/05 04:32:43;;;;;;;11.75;10.15;;;18.00;99.90;;;;;;6128451;23;20017;-89
2023/09/05 04:35:07;;;;;;;10.43;9.43;;;17.70;99.90;;;;;;6108002;23;20025;-91
2023/09/05 04:37:33;;;;;;;10.85;9.73;;;17.50;99.90;;;;;;6080667;23;20018;-90
2023/09/05 04:40:00;;;;;;;10.68;9.57;;;17.40;99.90;;;;;;6104544;23;20021;-92
2023/09/05 04:42:28;;;;;;;11.43;10.23;;;17.40;99.90;;;;;;6105458;23;20015;-93
2023/09/05 04:44:54;;;;;;;11.18;10.02;;;17.30;99.90;;;;;;6104258;23;20009;-90
2023/09/05 04:47:27;;;;;;;13.80;9.95;;;17.30;99.90;;;;;;6103946;23;20460;-90
2023/09/05 04:49:56;;;;;;;10.73;9.63;;;17.30;99.90;;;;;;6104201;23;20021;-92
2023/09/05 04:52:24;;;;;;;15.00;11.52;;;17.20;99.90;;;;;;6104567;23;20022;-91
2023/09/05 04:54:50;;;;;;;12.73;11.43;;;17.30;99.90;;;;;;6105038;23;20013;-89
2023/09/05 04:57:16;;;;;;;11.60;10.40;;;17.40;99.90;;;;;;6080492;23;20084;-90
2023/09/05 04:59:47;;;;;;;11.93;10.38;;;17.40;99.90;;;;;;6104576;23;20668;-89
2023/09/05 05:02:16;;;;;;;10.65;9.65;;;17.30;99.90;;;;;;6080928;23;20461;-90
2023/09/05 05:04:43;;;;;;;13.48;12.13;;;17.20;99.90;;;;;;6105275;23;20572;-91
2023/09/05 05:07:09;;;;;;;12.93;11.60;;;17.40;99.90;;;;;;6103691;23;20343;-92
2023/09/05 05:09:35;;;;;;;15.25;12.82;;;17.60;99.90;;;;;;6104381;23;20017;-90
2023/09/05 05:12:04;;;;;;;18.15;13.50;;;17.70;99.90;;;;;;6103801;23;20022;-90
2023/09/05 05:14:30;;;;;;;14.95;13.35;;;17.80;99.90;;;;;;6080561;23;20020;-92
2023/09/05 05:16:56;;;;;;;14.95;13.18;;;17.80;99.90;;;;;;6080331;23;20096;-93
2023/09/05 05:19:22;;;;;;;12.27;11.07;;;17.90;99.90;;;;;;6103919;23;20022;-92
2023/09/05 05:21:51;;;;;;;12.48;11.18;;;17.80;99.90;;;;;;6104684;23;20013;-92
2023/09/05 05:24:18;;;;;;;13.32;11.45;;;18.10;99.90;;;;;;6105139;23;20009;-91
2023/09/05 05:26:47;;;;;;;12.23;10.95;;;17.60;99.90;;;;;;6105527;23;20021;-92
2023/09/05 05:29:13;;;;;;;13.75;11.43;;;17.60;99.90;;;;;;6103826;23;20446;-89
2023/09/05 05:31:42;;;;;;;13.32;11.43;;;17.60;99.90;;;;;;6080305;23;20017;-92
2023/09/05 05:34:07;;;;;;;13.40;11.50;;;17.60;99.90;;;;;;6103246;23;20024;-91
2023/09/05 05:36:34;;;;;;;12.93;11.65;;;17.60;99.90;;;;;;6103516;23;20017;-90
2023/09/05 05:39:00;;;;;;;13.63;11.50;;;17.60;99.90;;;;;;6080807;23;20014;-90
2023/09/05 05:41:27;;;;;;;13.55;12.15;;;17.70;99.90;;;;;;6079782;23;20014;-90
2023/09/05 05:43:53;;;;;;;14.02;12.68;;;17.80;99.90;;;;;;6103339;23;20020;-91
2023/09/05 05:46:19;;;;;;;14.85;12.18;;;17.80;99.90;;;;;;6080420;23;20339;-90
2023/09/05 05:48:45;;;;;;;13.55;12.15;;;17.40;99.90;;;;;;6101774;23;20017;-88
2023/09/05 05:51:13;;;;;;;13.43;11.95;;;17.90;99.90;;;;;;6103274;23;20064;-93
2023/09/05 05:53:39;;;;;;;13.77;12.18;;;17.90;99.90;;;;;;6080331;23;20049;-89
2023/09/05 05:56:05;;;;;;;16.52;13.18;;;17.90;99.90;;;;;;6081294;23;20049;-90
2023/09/05 05:58:31;;;;;;;13.32;11.98;;;18.10;99.90;;;;;;6078252;23;20021;-89
2023/09/05 06:00:57;;;;;;;12.57;11.27;;;18.20;99.90;;;;;;6105788;23;20092;-90
2023/09/05 06:03:23;;;;;;;13.35;12.00;;;18.30;99.90;;;;;;6105729;23;20014;-93
2023/09/05 06:05:50;;;;;;;13.73;12.32;;;18.40;99.90;;;;;;6104337;23;20020;-90
2023/09/05 06:08:17;;;;;;;16.15;12.65;;;18.40;99.90;;;;;;6104693;23;20819;-92
2023/09/05 06:10:43;;;;;;;13.40;12.15;;;18.50;99.90;;;;;;6105568;23;20101;-91
2023/09/05 06:13:11;;;;;;;12.93;11.63;;;18.70;99.90;;;;;;6105114;23;20096;-89
2023/09/05 06:15:37;;;;;;;14.20;12.10;;;18.70;99.90;;;;;;6105538;23;20051;-89
2023/09/05 06:18:04;;;;;;;13.18;11.57;;;18.80;99.90;;;;;;6081666;23;20071;-92
2023/09/05 06:20:34;;;;;;;13.02;11.65;;;18.80;99.90;;;;;;6104816;23;20021;-92
2023/09/05 06:23:04;;;;;;;13.07;11.68;;;18.90;99.90;;;;;;6130142;23;20013;-93
2023/09/05 06:25:31;;;;;;;13.82;11.70;;;19.20;99.90;;;;;;6105628;23;20014;-89
2023/09/05 06:27:57;;;;;;;14.20;11.52;;;19.10;99.90;;;;;;6104867;23;20025;-91
2023/09/05 06:30:23;;;;;;;13.02;11.43;;;19.10;99.90;;;;;;6104746;23;20064;-89
2023/09/05 06:32:49;;;;;;;12.85;11.65;;;19.20;99.90;;;;;;6105726;23;20324;-92
2023/09/05 06:35:18;;;;;;;12.85;11.55;;;19.20;99.90;;;;;;6105274;23;20013;-92
2023/09/05 06:37:44;;;;;;;13.38;11.98;;;19.20;99.90;;;;;;6105644;23;20242;-89
2023/09/05 06:40:14;;;;;;;14.43;12.27;;;19.40;99.90;;;;;;6106533;23;20013;-89
2023/09/05 06:42:43;;;;;;;13.30;11.95;;;19.40;99.90;;;;;;6083757;23;20324;-92
2023/09/05 06:45:10;;;;;;;12.35;11.15;;;19.40;99.90;;;;;;6106418;23;20013;-90
2023/09/05 06:47:36;;;;;;;12.60;11.23;;;19.50;99.90;;;;;;6107655;23;20079;-90
2023/09/05 06:50:08;;;;;;;15.65;12.38;;;19.50;99.90;;;;;;6107060;23;20036;-92
2023/09/05 06:52:33;;;;;;;11.75;10.63;;;19.60;99.90;;;;;;6105419;23;20013;-90
2023/09/05 06:54:59;;;;;;;13.68;12.20;;;19.70;99.90;;;;;;6083038;23;20010;-90
2023/09/05 06:57:29;;;;;;;13.50;11.60;;;19.80;99.90;;;;;;6106444;23;20010;-91
2023/09/05 06:59:55;;;;;;;14.90;12.18;;;20.00;99.90;;;;;;6107386;23;20021;-91
2023/09/05 07:02:21;;;;;;;12.73;11.43;;;20.10;99.90;;;;;;6132338;23;20379;-90
2023/09/05 07:04:46;;;;;;;13.60;10.77;;;20.10;99.90;;;;;;6106898;23;20072;-89
2023/09/05 07:07:13;;;;;;;13.20;11.90;;;20.20;99.90;;;;;;6106611;23;20661;-92
2023/09/05 07:09:39;;;;;;;13.40;10.88;;;20.30;99.90;;;;;;6082934;23;20029;-90
2023/09/05 07:12:06;;;;;;;13.23;11.27;;;20.50;99.90;;;;;;6056838;23;20512;-92
2023/09/05 07:14:32;;;;;;;14.63;11.30;;;20.60;99.90;;;;;;6058256;23;20085;-90
2023/09/05 07:16:58;;;;;;;14.07;10.23;;;20.70;99.90;;;;;;6104392;23;20013;-89
2023/09/05 07:19:29;;;;;;;11.23;9.90;;;20.80;99.90;;;;;;6078540;23;20017;-90
2023/09/05 07:21:56;;;;;;;13.90;10.10;;;20.90;99.90;;;;;;6082097;23;20014;-90
2023/09/05 07:24:21;;;;;;;11.93;10.48;;;21.10;99.90;;;;;;6081569;23;20017;-89
2023/09/05 07:26:47;;;;;;;12.27;10.85;;;21.10;99.90;;;;;;6105721;23;20052;-89
2023/09/05 07:29:13;;;;;;;11.65;10.45;;;21.20;99.90;;;;;;6081717;23;20056;-89
2023/09/05 07:31:40;;;;;;;11.25;10.05;;;21.30;99.90;;;;;;6080976;23;20037;-93
2023/09/05 07:34:07;;;;;;;13.48;11.38;;;21.50;99.90;;;;;;6106015;23;20107;-90
2023/09/05 07:36:34;;;;;;;12.05;10.10;;;21.60;99.90;;;;;;6081208;23;20017;-91
2023/09/05 07:39:01;;;;;;;11.00;9.18;;;21.70;99.90;;;;;;6104369;23;20018;-90
2023/09/05 07:41:29;;;;;;;12.48;10.82;;;21.70;99.90;;;;;;6082075;23;20009;-91
2023/09/05 07:43:54;;;;;;;12.13;10.75;;;21.90;99.90;;;;;;6105772;23;20010;-91
2023/09/05 07:46:20;;;;;;;11.98;10.52;;;22.00;99.90;;;;;;6081361;23;20056;-93
2023/09/05 07:48:47;;;;;;;13.35;10.27;;;22.10;99.90;;;;;;6082492;23;20401;-90
2023/09/05 07:51:13;;;;;;;11.35;9.50;;;22.20;99.90;;;;;;6106395;23;20096;-91
2023/09/05 07:53:39;;;;;;;11.90;10.00;;;22.20;99.90;;;;;;6105712;23;20017;-90
2023/09/05 07:56:07;;;;;;;11.88;9.57;;;22.40;99.90;;;;;;6105923;23;20013;-91
2023/09/05 07:58:32;;;;;;;12.18;9.55;;;22.50;99.90;;;;;;6082270;23;20017;-92
2023/09/05 08:00:59;;;;;;;11.63;8.90;;;22.60;99.90;;;;;;6130083;23;20013;-91
2023/09/05 08:03:26;;;;;;;11.02;9.30;;;22.70;99.90;;;;;;6105194;23;20094;-89
2023/09/05 08:05:55;;;;;;;11.68;9.57;;;22.80;99.90;;;;;;6082031;23;20088;-89
2023/09/05 08:08:21;;;;;;;9.50;8.60;;;23.00;99.90;;;;;;6058680;23;20021;-88
2023/09/05 08:10:47;;;;;;;10.23;9.15;;;23.00;99.90;;;;;;6105828;23;20014;-90
2023/09/05 08:13:14;;;;;;;10.73;8.77;;;23.00;99.90;;;;;;6105721;23;20101;-88
2023/09/05 08:15:43;;;;;;;11.13;8.77;;;23.10;99.90;;;;;;6081665;23;20049;-90
2023/09/05 08:18:13;;;;;;;11.10;8.73;;;23.20;99.90;;;;;;6105696;23;20093;-90
2023/09/05 08:20:42;;;;;;;11.82;8.23;;;23.30;99.90;;;;;;6105184;23;20049;-88
2023/09/05 08:23:09;;;;;;;10.63;7.93;;;23.40;99.90;;;;;;6105602;23;20510;-90
2023/09/05 08:25:34;;;;;;;11.15;8.18;;;23.50;99.90;;;;;;6081617;23;20010;-89
2023/09/05 08:28:00;;;;;;;9.18;8.27;;;23.60;99.90;;;;;;6082606;23;20039;-89
2023/09/05 08:30:28;;;;;;;8.65;7.72;;;23.70;99.90;;;;;;6082423;23;20028;-89
2023/09/05 08:32:57;;;;;;;10.05;8.00;;;23.80;99.90;;;;;;6081618;23;20083;-89
2023/09/05 08:35:24;;;;;;;10.27;7.22;;;23.90;99.90;;;;;;6104994;23;20091;-89
2023/09/05 08:37:50;;;;;;;9.23;7.35;;;24.00;99.90;;;;;;6080666;23;20099;-90
2023/09/05 08:40:16;;;;;;;9.00;7.03;;;24.20;99.90;;;;;;6081638;23;20045;-89
2023/09/05 08:42:44;;;;;;;7.93;6.85;;;24.40;99.90;;;;;;6105104;23;20013;-90
2023/09/05 08:45:15;;;;;;;7.95;7.07;;;24.40;99.90;;;;;;6105580;23;20072;-89
2023/09/05 08:47:41;;;;;;;7.00;6.18;;;24.60;99.90;;;;;;6082482;23;20017;-88
2023/09/05 08:50:08;;;;;;;8.93;7.70;;;24.70;99.90;;;;;;6104744;23;20020;-89
2023/09/05 08:52:40;;;;;;;8.32;7.35;;;24.70;99.90;;;;;;6104930;23;20089;-91
2023/09/05 08:55:07;;;;;;;8.48;7.57;;;24.90;99.90;;;;;;6082146;23;20361;-89
2023/09/05 08:57:35;;;;;;;6.93;6.28;;;25.00;99.90;;;;;;6081101;23;20045;-90
2023/09/05 09:00:08;;;;;;;7.25;6.45;;;25.10;99.90;;;;;;6104885;23;20021;-91
2023/09/05 09:02:38;;;;;;;8.27;7.05;;;25.10;99.90;;;;;;6058229;23;20014;-91
2023/09/05 09:05:04;;;;;;;8.30;7.35;;;25.30;99.90;;;;;;6081877;23;20013;-89
2023/09/05 09:07:30;;;;;;;7.68;6.93;;;25.30;99.90;;;;;;6105145;23;20017;-91
2023/09/05 09:09:58;;;;;;;7.90;7.07;;;25.50;99.90;;;;;;6105296;23;20757;-90
2023/09/05 09:12:31;;;;;;;9.57;6.55;;;25.60;99.90;;;;;;6081458;23;20009;-90
2023/09/05 09:15:17;;;;;;;9.48;7.13;;;25.70;99.90;;;;;;6105186;23;20408;-91
2023/09/05 09:17:47;;;;;;;8.20;7.40;;;25.80;99.90;;;;;;6104093;23;20093;-89
2023/09/05 09:20:13;;;;;;;8.75;6.72;;;25.90;99.90;;;;;;6104897;23;20020;-91
2023/09/05 09:22:40;;;;;;;7.63;6.68;;;26.10;99.90;;;;;;6104924;23;20376;-91
2023/09/05 09:25:12;;;;;;;9.75;6.55;;;26.30;99.90;;;;;;6105465;23;20084;-90
2023/09/05 09:27:39;;;;;;;8.52;7.20;;;26.40;99.90;;;;;;6129664;23;20088;-90
2023/09/05 09:30:11;;;;;;;6.47;5.88;;;26.60;99.90;;;;;;6129993;23;20017;-90
2023/09/05 09:32:38;;;;;;;8.93;6.30;;;26.80;99.90;;;;;;6104830;23;20066;-89
2023/09/05 09:35:06;;;;;;;6.57;5.45;;;26.90;99.90;;;;;;6081308;23;20308;-89
2023/09/05 09:37:34;;;;;;;7.15;6.45;;;27.00;99.90;;;;;;6129053;23;20014;-91
2023/09/05 09:40:01;;;;;;;6.97;5.95;;;27.20;99.90;;;;;;6078031;23;20049;-88
2023/09/05 09:42:28;;;;;;;5.97;5.40;;;27.30;99.90;;;;;;6080606;23;20013;-91
2023/09/05 09:44:54;;;;;;;6.78;5.75;;;27.50;99.90;;;;;;6129350;23;20021;-90
2023/09/05 09:47:21;;;;;;;7.53;4.95;;;27.90;99.90;;;;;;6104380;23;20442;-89
2023/09/05 09:49:51;;;;;;;7.15;5.13;;;28.20;99.90;;;;;;6104488;23;20099;-91
2023/09/05 09:52:21;;;;;;;7.07;4.72;;;28.30;99.90;;;;;;6104824;23;20018;-90
2023/09/05 09:54:55;;;;;;;5.10;4.45;;;28.40;99.90;;;;;;6080723;23;20020;-88
2023/09/05 09:57:33;;;;;;;5.72;4.63;;;28.90;99.90;;;;;;6104017;23;20375;-91
2023/09/05 10:00:07;;;;;;;5.32;4.45;;;29.20;99.90;;;;;;6104701;23;20040;-90
2023/09/05 10:02:34;;;;;;;7.68;5.28;;;29.30;99.90;;;;;;6104221;23;20040;-89
2023/09/05 10:05:01;;;;;;;5.20;4.70;;;29.30;99.90;;;;;;6105192;23;20446;-91
2023/09/05 10:07:29;;;;;;;7.10;5.28;;;29.50;99.90;;;;;;6056757;23;20014;-90
2023/09/05 10:09:56;;;;;;;5.82;5.18;;;29.60;99.90;;;;;;6104928;23;20017;-91
2023/09/05 10:12:25;;;;;;;4.40;3.83;;;29.80;99.90;;;;;;6108650;23;20767;-91
2023/09/05 10:14:54;;;;;;;6.20;4.10;;;30.00;99.90;;;;;;6057853;23;20137;-89
2023/09/05 10:17:21;;;;;;;3.78;3.33;;;30.00;99.90;;;;;;6103008;23;20372;-88
2023/09/05 10:19:50;;;;;;;7.00;3.70;;;30.00;99.90;;;;;;6104988;23;20025;-88
2023/09/05 10:22:16;;;;;;;5.35;3.55;;;30.20;99.90;;;;;;6059016;23;20049;-89
2023/09/05 10:24:43;;;;;;;5.03;3.70;;;30.10;99.90;;;;;;6058754;23;20143;-89
2023/09/05 10:27:11;;;;;;;3.63;3.10;;;30.10;99.90;;;;;;6083071;23;20025;-88
2023/09/05 10:29:47;;;;;;;3.65;3.35;;;30.30;99.90;;;;;;6107112;23;20084;-88
2023/09/05 10:32:18;;;;;;;3.88;3.47;;;30.50;99.90;;;;;;6105845;23;20021;-89
2023/09/05 10:34:58;;;;;;;3.80;3.20;;;30.60;99.90;;;;;;6105195;23;20028;-89
2023/09/05 10:37:33;;;;;;;3.13;2.72;;;30.80;99.90;;;;;;6105261;23;20092;-89
2023/09/05 10:40:10;;;;;;;3.60;3.30;;;31.00;99.90;;;;;;6104764;23;20535;-90
2023/09/05 10:42:42;;;;;;;5.28;2.85;;;31.00;99.90;;;;;;6104540;23;20014;-90
2023/09/05 10:45:24;;;;;;;3.97;3.33;;;31.10;99.90;;;;;;6106807;23;20013;-90
2023/09/05 10:47:53;;;;;;;4.10;2.95;;;30.80;99.90;;;;;;6106642;23;20446;-90
2023/09/05 10:50:20;;;;;;;3.33;2.90;;;31.00;99.90;;;;;;6107780;23;20235;-90
2023/09/05 10:52:50;;;;;;;5.95;2.75;;;31.10;93.50;;;;;;6108721;23;20430;-89
2023/09/05 10:55:29;;;;;;;2.88;2.33;;;31.20;99.90;;;;;;6110098;23;20013;-89
2023/09/05 10:57:56;;;;;;;2.88;2.60;;;31.40;99.90;;;;;;6107055;23;20391;-89
2023/09/05 11:00:37;;;;;;;3.70;2.83;;;31.50;99.90;;;;;;6083116;23;20554;-90
2023/09/05 11:03:12;;;;;;;2.35;2.10;;;31.70;99.90;;;;;;6106652;23;20544;-89
2023/09/05 11:05:40;;;;;;;3.25;2.80;;;31.70;94.70;;;;;;6083204;23;20013;-90
2023/09/05 11:08:22;;;;;;;2.38;2.15;;;31.50;93.10;;;;;;6083207;23;20068;-91
2023/09/05 11:10:53;;;;;;;2.63;2.30;;;31.80;75.30;;;;;;6107505;23;20399;-89
2023/09/05 11:13:19;;;;;;;4.72;2.60;;;31.80;99.90;;;;;;6131867;23;20014;-92
2023/09/05 11:15:45;;;;;;;3.25;2.78;;;31.80;99.90;;;;;;6084517;23;20021;-89
2023/09/05 11:18:14;;;;;;;3.08;2.55;;;31.90;70.10;;;;;;6109049;23;20346;-89
2023/09/05 11:20:39;;;;;;;2.15;1.85;;;32.00;48.90;;;;;;6084198;23;20031;-87
2023/09/05 11:23:13;;;;;;;2.25;2.03;;;32.10;45.60;;;;;;6109281;23;20096;-88
2023/09/05 11:25:53;;;;;;;4.22;2.08;;;32.10;25.30;;;;;;6086507;23;20072;-89
2023/09/05 11:28:22;;;;;;;2.47;2.20;;;32.10;13.80;;;;;;6110020;23;20108;-90
2023/09/05 11:30:52;;;;;;;2.67;2.00;;;32.20;20.20;;;;;;6106779;23;20454;-90
2023/09/05 11:33:19;;;;;;;2.28;2.08;;;32.30;1.00;;;;;;6107507;23;20014;-89
2023/09/05 11:35:47;;;;;;;2.33;2.10;;;32.30;1.00;;;;;;6082465;23;20014;-89
2023/09/05 11:38:13;;;;;;;2.92;2.22;;;32.60;1.00;;;;;;6082684;23;20427;-90
2023/09/05 11:40:41;;;;;;;3.25;2.10;;;32.60;1.00;;;;;;6107420;23;20313;-88
2023/09/05 11:43:11;;;;;;;2.30;1.90;;;32.30;1.00;;;;;;6107462;23;20016;-89
2023/09/05 11:45:42;;;;;;;2.88;2.08;;;32.40;1.00;;;;;;6106811;23;20014;-90
2023/09/05 11:48:11;;;;;;;2.17;1.77;;;32.30;1.00;;;;;;6061319;23;20431;-90
2023/09/05 11:50:41;;;;;;;6.55;2.10;;;32.40;1.00;;;;;;6107241;23;20505;-90
2023/09/05 11:53:11;;;;;;;2.97;2.10;;;32.50;1.00;;;;;;6084027;23;20101;-88
2023/09/05 11:55:38;;;;;;;3.15;1.80;;;32.40;1.00;;;;;;6108002;23;20013;-89
2023/09/05 11:58:07;;;;;;;3.15;1.92;;;32.40;1.00;;;;;;6131755;23;20072;-90
2023/09/05 12:00:40;;;;;;;3.28;2.33;;;32.40;1.00;;;;;;6061302;23;20014;-88
2023/09/05 12:03:08;;;;;;;4.13;2.30;;;32.10;1.00;;;;;;6085069;23;20577;-88
2023/09/05 12:05:37;;;;;;;3.13;2.60;;;32.20;1.00;;;;;;6107414;23;20013;-89
2023/09/05 12:08:06;;;;;;;2.50;2.25;;;31.90;1.00;;;;;;6107917;23;20025;-89
2023/09/05 12:10:40;;;;;;;3.80;2.33;;;31.90;1.00;;;;;;6107861;23;20397;-88
2023/09/05 12:13:06;;;;;;;2.88;2.50;;;31.80;1.00;;;;;;6106683;23;20096;-88
2023/09/05 12:15:34;;;;;;;2.90;2.35;;;31.80;1.00;;;;;;6082865;23;20068;-90
2023/09/05 12:18:03;;;;;;;2.53;2.33;;;31.80;1.00;;;;;;6106726;23;20013;-89
2023/09/05 12:20:33;;;;;;;3.40;2.30;;;31.70;1.00;;;;;;6082797;23;20060;-89
2023/09/05 12:23:00;;;;;;;2.97;2.58;;;31.50;1.00;;;;;;6109925;23;20017;-89
2023/09/05 12:25:28;;;;;;;3.22;2.38;;;31.70;1.00;;;;;;6107161;23;20021;-89
2023/09/05 12:27:55;;;;;;;2.17;1.92;;;31.70;1.00;;;;;;6106555;23;20024;-89
2023/09/05 12:30:37;;;;;;;4.15;2.47;;;31.70;1.00;;;;;;6106057;23;20431;-89
2023/09/05 12:33:04;;;;;;;2.78;2.20;;;31.70;1.00;;;;;;6105201;23;20045;-89
2023/09/05 12:35:31;;;;;;;2.60;2.40;;;31.80;1.00;;;;;;6105186;23;20017;-89
2023/09/05 12:38:00;;;;;;;3.28;2.92;;;31.70;1.00;;;;;;6128788;23;20093;-90
2023/09/05 12:40:26;;;;;;;3.25;2.40;;;31.70;1.00;;;;;;6105551;23;20044;-90
2023/09/05 12:42:52;;;;;;;6.70;2.45;;;31.60;1.00;;;;;;6105502;23;20016;-90